Time,TemperatureF,DewpointF,PressureIn,WindDirection,WindDirectionDegrees,WindSpeedMPH,WindSpeedGustMPH,Humidity,HourlyPrecipIn,Conditions,Clouds,dailyrainin,SoftwareType,DateUTC
2013-08-09 00:00:00,59.2,54.0,30.02,SSW,211,0.0,2.8,83,0.00,,,0.00,VWS V14.01,2013-08-09 04:00:00,
2013-08-09 00:01:00,59.2,54.7,30.02,SSW,210,0.0,2.8,85,0.00,,,0.00,VWS V14.01,2013-08-09 04:01:00,
2013-08-09 00:06:00,59.1,54.6,30.02,SSE,155,0.0,1.4,85,0.00,,,0.00,VWS V14.01,2013-08-09 04:06:00,
2013-08-09 00:08:00,59.1,54.3,30.02,SSE,155,0.0,1.4,84,0.00,,,0.00,VWS V14.01,2013-08-09 04:08:00,
2013-08-09 00:13:00,59.0,54.5,30.02,SSW,194,0.0,1.4,85,0.00,,,0.00,VWS V14.01,2013-08-09 04:13:00,
2013-08-09 00:15:00,58.8,54.0,30.02,SSW,194,0.0,1.4,84,0.00,,,0.00,VWS V14.01,2013-08-09 04:15:00,
2013-08-09 00:20:00,58.7,53.6,30.02,SSW,194,0.0,1.4,83,0.00,,,0.00,VWS V14.01,2013-08-09 04:20:00,
2013-08-09 00:25:00,58.8,54.0,30.02,SSW,193,0.0,1.4,84,0.00,,,0.00,VWS V14.01,2013-08-09 04:25:00,
2013-08-09 00:30:00,58.8,53.7,30.02,SSW,193,0.0,1.4,83,0.00,,,0.00,VWS V14.01,2013-08-09 04:30:00,
2013-08-09 00:35:00,58.9,54.1,30.02,SSW,193,0.0,1.4,84,0.00,,,0.00,VWS V14.01,2013-08-09 04:35:00,
2013-08-09 00:40:00,58.8,53.3,30.01,SSW,193,0.0,1.4,82,0.00,,,0.00,VWS V14.01,2013-08-09 04:40:00,
2013-08-09 00:45:00,58.7,53.6,30.01,SSW,193,0.0,1.4,83,0.00,,,0.00,VWS V14.01,2013-08-09 04:45:00,
2013-08-09 00:50:00,58.8,54.6,30.01,SSW,193,0.0,1.4,86,0.00,,,0.00,VWS V14.01,2013-08-09 04:50:00,
2013-08-09 00:55:00,59.0,53.5,30.01,ESE,123,0.0,1.4,82,0.00,,,0.00,VWS V14.01,2013-08-09 04:55:00,
2013-08-09 01:00:00,59.2,54.0,30.02,SSW,203,0.0,1.4,83,0.00,,,0.00,VWS V14.01,2013-08-09 05:00:00,
2013-08-09 01:05:00,59.0,54.8,30.02,SSW,203,0.0,1.4,86,0.00,,,0.00,VWS V14.01,2013-08-09 05:05:00,
2013-08-09 01:10:00,58.5,54.0,30.02,SSW,203,0.0,1.4,85,0.00,,,0.00,VWS V14.01,2013-08-09 05:10:00,
2013-08-09 01:15:00,58.7,54.2,30.01,SSW,203,0.0,1.4,85,0.00,,,0.00,VWS V14.01,2013-08-09 05:15:00,
2013-08-09 01:20:00,59.1,54.6,30.01,SSW,204,0.0,1.4,85,0.00,,,0.00,VWS V14.01,2013-08-09 05:20:00,
2013-08-09 01:25:00,59.1,54.6,30.01,SSW,204,0.0,1.4,85,0.00,,,0.00,VWS V14.01,2013-08-09 05:25:00,
2013-08-09 01:30:00,58.9,55.0,30.01,SSW,205,0.0,1.4,87,0.00,,,0.00,VWS V14.01,2013-08-09 05:30:00,
2013-08-09 01:35:00,58.6,55.1,30.02,SW,229,0.0,1.4,88,0.00,,,0.00,VWS V14.01,2013-08-09 05:35:00,
2013-08-09 01:40:00,58.4,54.2,30.02,West,271,1.4,2.8,86,0.00,,,0.00,VWS V14.01,2013-08-09 05:40:00,
2013-08-09 01:45:00,58.9,53.8,30.03,West,277,1.4,4.2,83,0.00,,,0.00,VWS V14.01,2013-08-09 05:45:00,
2013-08-09 01:50:00,59.1,54.9,30.03,WSW,245,0.0,5.6,86,0.01,,,0.01,VWS V14.01,2013-08-09 05:50:00,
2013-08-09 01:55:00,59.0,55.5,30.03,WNW,285,4.2,5.6,88,0.02,,,0.02,VWS V14.01,2013-08-09 05:55:00,
2013-08-09 02:00:00,58.9,55.4,30.02,WNW,288,1.4,5.6,88,0.02,,,0.02,VWS V14.01,2013-08-09 06:00:00,
2013-08-09 02:05:00,58.7,55.5,30.02,North,356,1.4,4.2,89,0.00,,,0.03,VWS V14.01,2013-08-09 06:05:00,
2013-08-09 02:10:00,58.6,55.7,30.01,NW,314,0.0,4.2,90,0.00,,,0.03,VWS V14.01,2013-08-09 06:10:00,
2013-08-09 02:15:00,58.5,56.2,30.01,WSW,248,1.4,4.2,92,0.00,,,0.03,VWS V14.01,2013-08-09 06:15:00,
2013-08-09 02:20:00,58.3,56.0,30.01,WSW,242,0.0,4.2,92,0.00,,,0.03,VWS V14.01,2013-08-09 06:20:00,
2013-08-09 02:25:00,58.2,56.2,30.01,South,186,2.8,4.2,93,0.00,,,0.03,VWS V14.01,2013-08-09 06:25:00,
2013-08-09 02:30:00,58.3,56.3,30.01,SSE,148,1.4,4.2,93,0.00,,,0.03,VWS V14.01,2013-08-09 06:30:00,
2013-08-09 02:35:00,58.1,56.1,30.01,SW,235,1.4,4.2,93,0.01,,,0.04,VWS V14.01,2013-08-09 06:35:00,
2013-08-09 02:40:00,58.0,56.3,30.01,ESE,123,1.4,4.2,94,0.01,,,0.04,VWS V14.01,2013-08-09 06:40:00,
2013-08-09 02:45:00,57.9,56.2,30.01,SSE,157,1.4,4.2,94,0.01,,,0.04,VWS V14.01,2013-08-09 06:45:00,
2013-08-09 02:50:00,57.6,55.9,30.00,SSE,152,1.4,4.2,94,0.01,,,0.04,VWS V14.01,2013-08-09 06:50:00,
2013-08-09 02:55:00,57.6,55.9,30.00,SW,228,1.4,4.2,94,0.01,,,0.04,VWS V14.01,2013-08-09 06:55:00,
2013-08-09 03:00:00,57.6,55.9,30.00,SW,228,0.0,4.2,94,0.01,,,0.04,VWS V14.01,2013-08-09 07:00:00,
2013-08-09 03:05:00,57.4,55.7,30.00,SW,228,0.0,4.2,94,0.01,,,0.04,VWS V14.01,2013-08-09 07:05:00,
2013-08-09 03:10:00,57.5,55.8,30.00,SW,222,0.0,4.2,94,0.01,,,0.04,VWS V14.01,2013-08-09 07:10:00,
2013-08-09 03:15:00,57.7,56.3,30.00,SW,224,0.0,4.2,95,0.01,,,0.04,VWS V14.01,2013-08-09 07:15:00,
2013-08-09 03:20:00,57.7,56.3,30.00,SW,225,0.0,4.2,95,0.01,,,0.04,VWS V14.01,2013-08-09 07:20:00,
2013-08-09 03:25:00,57.6,55.9,30.00,SSW,203,1.4,4.2,94,0.01,,,0.04,VWS V14.01,2013-08-09 07:25:00,
2013-08-09 03:30:00,57.6,56.2,30.00,SSW,205,0.0,4.2,95,0.01,,,0.04,VWS V14.01,2013-08-09 07:30:00,
2013-08-09 03:35:00,57.5,55.8,30.00,WSW,248,0.0,4.2,94,0.01,,,0.04,VWS V14.01,2013-08-09 07:35:00,
2013-08-09 03:40:00,57.3,55.9,30.00,South,174,1.4,4.2,95,0.02,,,0.05,VWS V14.01,2013-08-09 07:40:00,
2013-08-09 03:45:00,57.4,56.0,29.99,SSE,166,2.8,4.2,95,0.02,,,0.05,VWS V14.01,2013-08-09 07:45:00,
2013-08-09 03:50:00,57.7,56.6,29.99,SSE,166,5.6,5.6,96,0.02,,,0.05,VWS V14.01,2013-08-09 07:50:00,
2013-08-09 03:55:00,58.0,56.9,29.99,SSE,163,4.2,7.0,96,0.02,,,0.05,VWS V14.01,2013-08-09 07:55:00,
2013-08-09 04:00:00,58.1,56.7,29.99,South,181,2.8,7.0,95,0.02,,,0.05,VWS V14.01,2013-08-09 08:00:00,
2013-08-09 04:05:00,58.2,56.5,29.99,SSW,205,1.4,4.2,94,0.00,,,0.05,VWS V14.01,2013-08-09 08:05:00,
2013-08-09 04:10:00,58.0,56.3,29.99,SW,224,0.0,4.2,94,0.00,,,0.05,VWS V14.01,2013-08-09 08:10:00,
2013-08-09 04:15:00,57.9,56.2,29.98,South,172,0.0,4.2,94,0.00,,,0.05,VWS V14.01,2013-08-09 08:15:00,
2013-08-09 04:20:00,57.8,56.4,29.98,SSE,152,0.0,4.2,95,0.00,,,0.05,VWS V14.01,2013-08-09 08:20:00,
2013-08-09 04:25:00,57.7,56.0,29.98,SW,217,0.0,4.2,94,0.00,,,0.05,VWS V14.01,2013-08-09 08:25:00,
2013-08-09 04:30:00,57.5,55.8,29.98,SW,217,0.0,4.2,94,0.00,,,0.05,VWS V14.01,2013-08-09 08:30:00,
2013-08-09 04:35:00,57.2,55.8,29.98,SW,217,0.0,4.2,95,0.00,,,0.05,VWS V14.01,2013-08-09 08:35:00,
2013-08-09 04:40:00,57.0,55.6,29.98,SW,217,0.0,4.2,95,0.00,,,0.05,VWS V14.01,2013-08-09 08:40:00,
2013-08-09 04:45:00,57.0,55.6,29.98,SW,217,0.0,4.2,95,0.00,,,0.05,VWS V14.01,2013-08-09 08:45:00,
2013-08-09 04:50:00,57.0,55.9,29.98,SW,217,0.0,4.2,96,0.00,,,0.05,VWS V14.01,2013-08-09 08:50:00,
2013-08-09 04:55:00,57.0,55.9,29.98,SW,217,0.0,4.2,96,0.00,,,0.05,VWS V14.01,2013-08-09 08:55:00,
2013-08-09 05:00:00,57.1,56.0,29.97,SW,215,0.0,4.2,96,0.00,,,0.05,VWS V14.01,2013-08-09 09:00:00,
2013-08-09 05:05:00,57.1,56.0,29.97,SW,215,0.0,4.2,96,0.00,,,0.05,VWS V14.01,2013-08-09 09:05:00,
2013-08-09 05:10:00,57.0,55.6,29.97,SW,215,0.0,4.2,95,0.00,,,0.05,VWS V14.01,2013-08-09 09:10:00,
2013-08-09 05:15:00,56.9,55.5,29.97,SW,215,0.0,4.2,95,0.00,,,0.05,VWS V14.01,2013-08-09 09:15:00,
2013-08-09 05:20:00,56.9,55.5,29.97,SW,215,0.0,4.2,95,0.00,,,0.05,VWS V14.01,2013-08-09 09:20:00,
2013-08-09 05:25:00,56.8,55.4,29.97,WSW,252,1.4,4.2,95,0.00,,,0.05,VWS V14.01,2013-08-09 09:25:00,
2013-08-09 05:30:00,56.9,55.5,29.97,SSE,153,0.0,4.2,95,0.00,,,0.05,VWS V14.01,2013-08-09 09:30:00,
2013-08-09 05:35:00,56.9,55.5,29.97,SW,221,1.4,4.2,95,0.00,,,0.05,VWS V14.01,2013-08-09 09:35:00,
2013-08-09 05:40:00,56.9,55.5,29.97,SSE,154,2.8,4.2,95,0.00,,,0.05,VWS V14.01,2013-08-09 09:40:00,
2013-08-09 05:45:00,57.1,55.7,29.96,SW,215,1.4,4.2,95,0.00,,,0.05,VWS V14.01,2013-08-09 09:45:00,
2013-08-09 05:50:00,57.2,55.8,29.96,SW,226,4.2,4.2,95,0.00,,,0.05,VWS V14.01,2013-08-09 09:50:00,
2013-08-09 05:55:00,57.4,56.0,29.96,WSW,238,1.4,7.0,95,0.00,,,0.05,VWS V14.01,2013-08-09 09:55:00,
2013-08-09 06:00:00,57.5,56.1,29.95,SSW,205,0.0,7.0,95,0.00,,,0.05,VWS V14.01,2013-08-09 10:00:00,
2013-08-09 06:05:00,57.6,56.2,29.96,WSW,242,2.8,7.0,95,0.00,,,0.05,VWS V14.01,2013-08-09 10:05:00,
2013-08-09 06:10:00,57.7,56.0,29.96,SSE,158,1.4,7.0,94,0.00,,,0.05,VWS V14.01,2013-08-09 10:10:00,
2013-08-09 06:15:00,57.9,56.2,29.96,SW,221,4.2,9.8,94,0.00,,,0.05,VWS V14.01,2013-08-09 10:15:00,
2013-08-09 06:20:00,58.0,56.3,29.96,SW,224,1.4,9.8,94,0.00,,,0.05,VWS V14.01,2013-08-09 10:20:00,
2013-08-09 06:25:00,58.0,56.3,29.96,SW,222,2.8,9.8,94,0.00,,,0.05,VWS V14.01,2013-08-09 10:25:00,
2013-08-09 06:30:00,58.0,56.3,29.96,SW,227,1.4,9.8,94,0.00,,,0.05,VWS V14.01,2013-08-09 10:30:00,
2013-08-09 06:35:00,58.0,56.3,29.96,WSW,242,2.8,9.8,94,0.00,,,0.05,VWS V14.01,2013-08-09 10:35:00,
2013-08-09 06:40:00,57.9,56.2,29.96,SSW,210,1.4,9.8,94,0.00,,,0.05,VWS V14.01,2013-08-09 10:40:00,
2013-08-09 06:45:00,57.8,56.1,29.96,SW,219,2.8,9.8,94,0.00,,,0.05,VWS V14.01,2013-08-09 10:45:00,
2013-08-09 06:50:00,57.7,56.3,29.96,SSW,203,2.8,9.8,95,0.00,,,0.05,VWS V14.01,2013-08-09 10:50:00,
2013-08-09 06:55:00,57.7,56.3,29.96,SW,219,2.8,9.8,95,0.00,,,0.05,VWS V14.01,2013-08-09 10:55:00,
2013-08-09 07:00:00,57.8,56.4,29.96,SW,219,2.8,9.8,95,0.00,,,0.05,VWS V14.01,2013-08-09 11:00:00,
2013-08-09 07:05:00,57.9,56.5,29.96,SSW,211,1.4,9.8,95,0.00,,,0.05,VWS V14.01,2013-08-09 11:05:00,
2013-08-09 07:10:00,58.0,56.6,29.96,SW,225,2.8,9.8,95,0.00,,,0.05,VWS V14.01,2013-08-09 11:10:00,
2013-08-09 07:15:00,58.3,56.9,29.96,WSW,252,2.8,9.8,95,0.00,,,0.05,VWS V14.01,2013-08-09 11:15:00,
2013-08-09 07:20:00,58.5,57.1,29.96,SSW,207,1.4,9.8,95,0.00,,,0.05,VWS V14.01,2013-08-09 11:20:00,
2013-08-09 07:25:00,58.7,57.3,29.96,SW,232,1.4,9.8,95,0.00,,,0.05,VWS V14.01,2013-08-09 11:25:00,
2013-08-09 07:30:00,58.8,57.4,29.96,SSW,203,2.8,9.8,95,0.00,,,0.05,VWS V14.01,2013-08-09 11:30:00,
2013-08-09 07:35:00,58.9,57.5,29.96,SW,215,2.8,9.8,95,0.00,,,0.05,VWS V14.01,2013-08-09 11:35:00,
2013-08-09 07:40:00,59.0,57.6,29.96,WSW,238,1.4,9.8,95,0.00,,,0.05,VWS V14.01,2013-08-09 11:40:00,
2013-08-09 07:45:00,59.1,57.7,29.96,SSE,159,1.4,9.8,95,0.00,,,0.05,VWS V14.01,2013-08-09 11:45:00,
2013-08-09 07:50:00,59.2,57.8,29.95,SW,226,1.4,9.8,95,0.00,,,0.05,VWS V14.01,2013-08-09 11:50:00,
2013-08-09 07:55:00,59.3,57.9,29.95,South,186,0.0,9.8,95,0.00,,,0.05,VWS V14.01,2013-08-09 11:55:00,
2013-08-09 08:00:00,59.5,58.1,29.95,SSW,212,1.4,9.8,95,0.00,,,0.05,VWS V14.01,2013-08-09 12:00:00,
2013-08-09 08:02:00,59.6,58.2,29.95,SSW,203,4.2,4.2,95,0.00,,,0.05,VWS V14.01,2013-08-09 12:02:00,
2013-08-09 08:07:00,60.0,58.6,29.95,WSW,240,1.4,4.2,95,0.00,,,0.05,VWS V14.01,2013-08-09 12:07:00,
2013-08-09 08:12:00,60.5,58.8,29.95,SW,222,1.4,4.2,94,0.00,,,0.05,VWS V14.01,2013-08-09 12:12:00,
2013-08-09 08:17:00,60.9,59.2,29.95,SW,217,2.8,4.2,94,0.00,,,0.05,VWS V14.01,2013-08-09 12:17:00,
2013-08-09 08:22:00,60.9,59.2,29.95,SW,235,1.4,4.2,94,0.00,,,0.05,VWS V14.01,2013-08-09 12:22:00,
2013-08-09 08:27:00,61.1,59.4,29.95,SW,232,2.8,5.6,94,0.00,,,0.05,VWS V14.01,2013-08-09 12:27:00,
2013-08-09 08:32:00,61.2,59.5,29.95,SW,225,0.0,5.6,94,0.00,,,0.05,VWS V14.01,2013-08-09 12:32:00,
2013-08-09 08:37:00,61.4,59.7,29.95,SSW,212,2.8,8.4,94,0.00,,,0.05,VWS V14.01,2013-08-09 12:37:00,
2013-08-09 08:42:00,61.6,59.9,29.95,WSW,248,0.0,9.8,94,0.00,,,0.05,VWS V14.01,2013-08-09 12:42:00,
2013-08-09 08:47:00,61.8,59.8,29.95,SW,217,2.8,12.6,93,0.00,,,0.05,VWS V14.01,2013-08-09 12:47:00,
2013-08-09 08:52:00,62.0,60.0,29.94,SW,233,4.2,12.6,93,0.00,,,0.05,VWS V14.01,2013-08-09 12:52:00,
2013-08-09 08:57:00,62.2,60.2,29.94,WSW,242,1.4,12.6,93,0.00,,,0.05,VWS V14.01,2013-08-09 12:57:00,
2013-08-09 09:00:00,59.6,58.2,29.95,SSW,198,4.2,9.8,95,0.00,,,0.05,VWS V14.01,2013-08-09 13:00:00,
2013-08-09 09:02:00,62.2,60.2,29.94,SSW,207,7.0,12.6,93,0.00,,,0.05,VWS V14.01,2013-08-09 13:02:00,
2013-08-09 09:07:00,62.2,60.2,29.94,South,187,1.4,12.6,93,0.00,,,0.05,VWS V14.01,2013-08-09 13:07:00,
2013-08-09 09:12:00,62.2,60.2,29.94,WSW,255,2.8,12.6,93,0.00,,,0.05,VWS V14.01,2013-08-09 13:12:00,
2013-08-09 09:17:00,62.1,60.1,29.94,West,260,2.8,12.6,93,0.00,,,0.05,VWS V14.01,2013-08-09 13:17:00,
2013-08-09 09:22:00,62.2,60.2,29.94,WSW,253,2.8,12.6,93,0.00,,,0.05,VWS V14.01,2013-08-09 13:22:00,
2013-08-09 09:27:00,62.4,60.0,29.94,SSW,200,5.6,12.6,92,0.00,,,0.05,VWS V14.01,2013-08-09 13:27:00,
2013-08-09 09:32:00,62.6,60.2,29.94,SW,231,2.8,12.6,92,0.00,,,0.05,VWS V14.01,2013-08-09 13:32:00,
2013-08-09 09:37:00,62.8,60.1,29.94,WSW,248,2.8,12.6,91,0.00,,,0.05,VWS V14.01,2013-08-09 13:37:00,
2013-08-09 09:41:00,63.0,60.3,29.94,WSW,255,8.4,12.6,91,0.00,,,0.05,VWS V14.01,2013-08-09 13:41:00,
2013-08-09 09:46:00,63.2,60.5,29.94,West,274,5.6,12.6,91,0.00,,,0.05,VWS V14.01,2013-08-09 13:46:00,
2013-08-09 09:51:00,63.6,60.6,29.94,West,271,4.2,12.6,90,0.00,,,0.05,VWS V14.01,2013-08-09 13:51:00,
2013-08-09 09:56:00,63.9,60.6,29.94,SW,215,8.4,12.6,89,0.00,,,0.05,VWS V14.01,2013-08-09 13:56:00,
2013-08-09 10:00:00,64.3,60.7,29.93,WSW,256,2.8,16.8,88,0.00,,,0.05,VWS V14.01,2013-08-09 14:00:00,
2013-08-09 10:01:00,64.3,60.7,29.93,WSW,250,5.6,16.8,88,0.00,,,0.05,VWS V14.01,2013-08-09 14:01:00,
2013-08-09 10:06:00,64.5,60.9,29.93,WSW,246,4.2,11.2,88,0.00,,,0.05,VWS V14.01,2013-08-09 14:06:00,
2013-08-09 10:11:00,64.7,60.8,29.93,WSW,237,9.8,14.0,87,0.00,,,0.05,VWS V14.01,2013-08-09 14:11:00,
2013-08-09 10:16:00,65.0,61.0,29.93,SSW,207,8.4,14.0,87,0.00,,,0.05,VWS V14.01,2013-08-09 14:16:00,
2013-08-09 10:21:00,65.2,60.9,29.92,SW,224,2.8,16.8,86,0.00,,,0.05,VWS V14.01,2013-08-09 14:21:00,
2013-08-09 10:26:00,65.4,61.1,29.92,West,276,4.2,16.8,86,0.00,,,0.05,VWS V14.01,2013-08-09 14:26:00,
2013-08-09 10:31:00,66.2,61.9,29.92,WSW,242,5.6,16.8,86,0.00,,,0.05,VWS V14.01,2013-08-09 14:31:00,
2013-08-09 10:36:00,66.8,61.8,29.92,SSW,212,4.2,16.8,84,0.00,,,0.05,VWS V14.01,2013-08-09 14:36:00,
2013-08-09 10:41:00,67.2,61.5,29.92,WSW,252,2.8,16.8,82,0.00,,,0.05,VWS V14.01,2013-08-09 14:41:00,
2013-08-09 10:46:00,67.3,61.6,29.91,WSW,243,5.6,16.8,82,0.00,,,0.05,VWS V14.01,2013-08-09 14:46:00,
2013-08-09 10:51:00,67.3,61.3,29.92,WSW,246,9.8,16.8,81,0.00,,,0.05,VWS V14.01,2013-08-09 14:51:00,
2013-08-09 10:56:00,67.8,61.8,29.92,WNW,302,8.4,16.8,81,0.00,,,0.05,VWS V14.01,2013-08-09 14:56:00,
2013-08-09 11:00:00,64.3,60.7,29.93,WSW,256,2.8,16.8,88,0.00,,,0.05,VWS V14.01,2013-08-09 15:00:00,
2013-08-09 11:01:00,68.6,61.5,29.92,NW,315,12.6,19.6,78,0.00,,,0.05,VWS V14.01,2013-08-09 15:01:00,
2013-08-09 11:06:00,69.4,61.9,29.92,WNW,300,9.8,19.6,77,0.00,,,0.05,VWS V14.01,2013-08-09 15:06:00,
2013-08-09 11:11:00,69.8,61.9,29.92,West,260,5.6,19.6,76,0.00,,,0.05,VWS V14.01,2013-08-09 15:11:00,
2013-08-09 11:16:00,70.2,61.2,29.92,West,264,4.2,19.6,73,0.00,,,0.05,VWS V14.01,2013-08-09 15:16:00,
2013-08-09 11:21:00,70.2,61.9,29.92,WSW,245,1.4,19.6,75,0.00,,,0.05,VWS V14.01,2013-08-09 15:21:00,
2013-08-09 11:26:00,71.0,61.5,29.92,WNW,290,7.0,19.6,72,0.00,,,0.05,VWS V14.01,2013-08-09 15:26:00,
2013-08-09 11:31:00,71.5,62.0,29.92,SW,217,7.0,19.6,72,0.00,,,0.05,VWS V14.01,2013-08-09 15:31:00,
2013-08-09 11:36:00,71.3,61.4,29.91,WSW,250,2.8,19.6,71,0.00,,,0.05,VWS V14.01,2013-08-09 15:36:00,
2013-08-09 11:41:00,70.0,62.1,29.91,NW,321,4.2,19.6,76,0.00,,,0.05,VWS V14.01,2013-08-09 15:41:00,
2013-08-09 11:46:00,68.9,61.4,29.91,NW,311,1.4,19.6,77,0.00,,,0.05,VWS V14.01,2013-08-09 15:46:00,
2013-08-09 11:51:00,69.7,61.4,29.90,WNW,285,8.4,19.6,75,0.00,,,0.05,VWS V14.01,2013-08-09 15:51:00,
2013-08-09 11:56:00,70.7,62.4,29.91,SW,228,4.2,19.6,75,0.00,,,0.05,VWS V14.01,2013-08-09 15:56:00,
2013-08-09 12:00:00,72.0,62.1,29.90,SSW,212,8.4,19.6,71,0.00,,,0.05,VWS V14.01,2013-08-09 16:00:00,
2013-08-09 12:01:00,72.0,62.5,29.91,WNW,302,2.8,19.6,72,0.00,,,0.05,VWS V14.01,2013-08-09 16:01:00,
2013-08-09 12:06:00,72.0,62.5,29.90,NNW,346,9.8,14.0,72,0.00,,,0.05,VWS V14.01,2013-08-09 16:06:00,
2013-08-09 12:11:00,71.0,61.5,29.90,NNE,29,11.2,25.2,72,0.00,,,0.05,VWS V14.01,2013-08-09 16:11:00,
2013-08-09 12:16:00,69.0,61.1,29.90,WNW,290,11.2,25.2,76,0.00,,,0.05,VWS V14.01,2013-08-09 16:16:00,
2013-08-09 12:21:00,67.9,61.2,29.90,NW,311,8.4,25.2,79,0.00,,,0.05,VWS V14.01,2013-08-09 16:21:00,
2013-08-09 12:26:00,67.6,61.6,29.90,NW,325,11.2,25.2,81,0.00,,,0.05,VWS V14.01,2013-08-09 16:26:00,
2013-08-09 12:31:00,66.8,60.4,29.90,NW,313,9.8,25.2,80,0.00,,,0.05,VWS V14.01,2013-08-09 16:31:00,
2013-08-09 12:36:00,66.0,60.0,29.89,NNW,345,7.0,25.2,81,0.00,,,0.05,VWS V14.01,2013-08-09 16:36:00,
2013-08-09 12:41:00,65.6,60.0,29.90,NNW,328,8.4,25.2,82,0.00,,,0.05,VWS V14.01,2013-08-09 16:41:00,
2013-08-09 12:46:00,65.4,60.1,29.90,NNW,340,4.2,25.2,83,0.00,,,0.05,VWS V14.01,2013-08-09 16:46:00,
2013-08-09 12:51:00,64.9,60.0,29.90,NW,323,12.6,25.2,84,0.00,,,0.05,VWS V14.01,2013-08-09 16:51:00,
2013-08-09 12:56:00,64.5,60.2,29.90,NNW,328,7.0,25.2,86,0.00,,,0.05,VWS V14.01,2013-08-09 16:56:00,
2013-08-09 13:00:00,72.0,62.1,29.90,SSW,212,8.4,19.6,71,0.00,,,0.05,VWS V14.01,2013-08-09 17:00:00,
2013-08-09 13:01:00,65.1,60.5,29.91,NNW,341,2.8,25.2,85,0.00,,,0.05,VWS V14.01,2013-08-09 17:01:00,
2013-08-09 13:06:00,67.6,61.6,29.90,NE,36,5.6,25.2,81,0.00,,,0.05,VWS V14.01,2013-08-09 17:06:00,
2013-08-09 13:11:00,67.4,60.3,29.91,NNW,331,7.0,25.2,78,0.00,,,0.05,VWS V14.01,2013-08-09 17:11:00,
2013-08-09 13:16:00,67.2,60.5,29.91,WSW,253,9.8,25.2,79,0.00,,,0.05,VWS V14.01,2013-08-09 17:16:00,
2013-08-09 13:21:00,66.8,59.7,29.91,NNE,23,7.0,25.2,78,0.00,,,0.05,VWS V14.01,2013-08-09 17:21:00,
2013-08-09 13:26:00,66.4,60.0,29.91,NNW,340,2.8,25.2,80,0.00,,,0.05,VWS V14.01,2013-08-09 17:26:00,
2013-08-09 13:31:00,65.8,59.5,29.91,NNE,15,11.2,25.2,80,0.01,,,0.06,VWS V14.01,2013-08-09 17:31:00,
2013-08-09 13:36:00,64.4,59.5,29.90,NNW,342,7.0,25.2,84,0.04,,,0.09,VWS V14.01,2013-08-09 17:36:00,
2013-08-09 13:41:00,63.4,59.5,29.91,WSW,248,0.0,25.2,87,0.05,,,0.10,VWS V14.01,2013-08-09 17:41:00,
2013-08-09 13:46:00,63.2,59.6,29.91,North,360,2.8,25.2,88,0.05,,,0.10,VWS V14.01,2013-08-09 17:46:00,
2013-08-09 13:51:00,63.2,59.3,29.91,West,264,0.0,25.2,87,0.05,,,0.10,VWS V14.01,2013-08-09 17:51:00,
2013-08-09 13:56:00,63.9,59.3,29.91,West,278,5.6,25.2,85,0.05,,,0.10,VWS V14.01,2013-08-09 17:56:00,
2013-08-09 14:00:00,64.3,59.0,29.91,WSW,253,7.0,25.2,83,0.05,,,0.10,VWS V14.01,2013-08-09 18:00:00,
2013-08-09 14:01:00,64.2,58.9,29.91,North,6,12.6,25.2,83,0.05,,,0.10,VWS V14.01,2013-08-09 18:01:00,
2013-08-09 14:06:00,64.9,59.3,29.91,North,9,12.6,15.4,82,0.00,,,0.10,VWS V14.01,2013-08-09 18:06:00,
2013-08-09 14:11:00,66.2,58.8,29.91,NW,325,4.2,15.4,77,0.00,,,0.10,VWS V14.01,2013-08-09 18:11:00,
2013-08-09 14:16:00,67.4,59.2,29.91,NW,319,9.8,18.2,75,0.00,,,0.10,VWS V14.01,2013-08-09 18:16:00,
2013-08-09 14:21:00,67.6,55.4,29.91,NNW,336,9.8,26.6,65,0.01,,,0.11,VWS V14.01,2013-08-09 18:21:00,
2013-08-09 14:26:00,67.9,54.8,29.91,ENE,60,7.0,28.0,63,0.01,,,0.11,VWS V14.01,2013-08-09 18:26:00,
2013-08-09 14:31:00,68.2,55.1,29.91,WNW,290,11.2,28.0,63,0.01,,,0.11,VWS V14.01,2013-08-09 18:31:00,
2013-08-09 14:36:00,68.1,54.2,29.91,North,350,28.0,33.6,61,0.01,,,0.11,VWS V14.01,2013-08-09 18:36:00,
2013-08-09 14:41:00,68.6,55.1,29.91,NW,325,14.0,33.6,62,0.01,,,0.11,VWS V14.01,2013-08-09 18:41:00,
2013-08-09 14:46:00,68.8,54.4,29.91,NW,316,18.2,33.6,60,0.01,,,0.11,VWS V14.01,2013-08-09 18:46:00,
2013-08-09 14:51:00,69.0,55.0,29.91,SE,142,8.4,33.6,61,0.01,,,0.11,VWS V14.01,2013-08-09 18:51:00,
2013-08-09 14:56:00,69.1,53.2,29.91,NW,314,22.4,33.6,57,0.01,,,0.11,VWS V14.01,2013-08-09 18:56:00,
2013-08-09 15:00:00,64.3,59.0,29.91,WSW,253,7.0,25.2,83,0.05,,,0.10,VWS V14.01,2013-08-09 19:00:00,
2013-08-09 15:01:00,69.2,52.4,29.92,NNE,12,8.4,33.6,55,0.01,,,0.11,VWS V14.01,2013-08-09 19:01:00,
2013-08-09 15:06:00,69.2,52.4,29.92,NW,314,8.4,33.6,55,0.01,,,0.11,VWS V14.01,2013-08-09 19:06:00,
2013-08-09 15:11:00,69.1,52.8,29.92,SW,229,18.2,33.6,56,0.01,,,0.11,VWS V14.01,2013-08-09 19:11:00,
2013-08-09 15:16:00,69.5,52.2,29.92,WNW,290,21.0,33.6,54,0.01,,,0.11,VWS V14.01,2013-08-09 19:16:00,
2013-08-09 15:21:00,69.5,51.6,29.92,NNW,335,12.6,33.6,53,0.01,,,0.11,VWS V14.01,2013-08-09 19:21:00,
2013-08-09 15:26:00,69.8,51.9,29.92,NW,306,18.2,33.6,53,0.01,,,0.11,VWS V14.01,2013-08-09 19:26:00,
2013-08-09 15:31:00,69.7,51.8,29.92,North,4,15.4,33.6,53,0.01,,,0.11,VWS V14.01,2013-08-09 19:31:00,
2013-08-09 15:36:00,69.5,52.6,29.92,NNW,335,11.2,36.4,55,0.01,,,0.11,VWS V14.01,2013-08-09 19:36:00,
2013-08-09 15:41:00,69.6,53.7,29.92,SE,139,4.2,36.4,57,0.01,,,0.11,VWS V14.01,2013-08-09 19:41:00,
2013-08-09 15:46:00,69.2,53.8,29.92,NNW,347,8.4,37.8,58,0.01,,,0.11,VWS V14.01,2013-08-09 19:46:00,
2013-08-09 15:51:00,69.2,54.7,29.92,SW,235,16.8,37.8,60,0.01,,,0.11,VWS V14.01,2013-08-09 19:51:00,
2013-08-09 15:56:00,69.3,54.4,29.92,WNW,301,18.2,37.8,59,0.01,,,0.11,VWS V14.01,2013-08-09 19:56:00,
2013-08-09 16:00:00,69.1,54.7,29.92,West,276,15.4,37.8,60,0.01,,,0.11,VWS V14.01,2013-08-09 20:00:00,
2013-08-09 16:01:00,69.1,54.2,29.92,North,8,22.4,37.8,59,0.01,,,0.11,VWS V14.01,2013-08-09 20:01:00,
2013-08-09 16:06:00,69.0,53.6,29.92,NNW,336,18.2,36.4,58,0.00,,,0.11,VWS V14.01,2013-08-09 20:06:00,
2013-08-09 16:11:00,69.3,53.9,29.92,North,8,15.4,36.4,58,0.00,,,0.11,VWS V14.01,2013-08-09 20:11:00,
2013-08-09 16:16:00,69.0,54.1,29.93,WNW,290,8.4,46.2,59,0.00,,,0.11,VWS V14.01,2013-08-09 20:16:00,
2013-08-09 16:21:00,68.7,53.8,29.93,NE,40,18.2,46.2,59,0.00,,,0.11,VWS V14.01,2013-08-09 20:21:00,
2013-08-09 16:26:00,68.1,55.9,29.94,North,354,16.8,46.2,65,0.00,,,0.11,VWS V14.01,2013-08-09 20:26:00,
2013-08-09 16:31:00,66.9,56.8,29.94,NNW,333,23.8,46.2,70,0.00,,,0.11,VWS V14.01,2013-08-09 20:31:00,
2013-08-09 16:36:00,66.1,57.2,29.94,WSW,252,22.4,46.2,73,0.00,,,0.11,VWS V14.01,2013-08-09 20:36:00,
2013-08-09 16:41:00,65.1,56.2,29.95,NNW,332,23.8,46.2,73,0.00,,,0.11,VWS V14.01,2013-08-09 20:41:00,
2013-08-09 16:46:00,64.7,55.5,29.95,NW,315,12.6,46.2,72,0.00,,,0.11,VWS V14.01,2013-08-09 20:46:00,
2013-08-09 16:51:00,63.9,55.1,29.96,WNW,283,9.8,46.2,73,0.00,,,0.11,VWS V14.01,2013-08-09 20:51:00,
2013-08-09 16:56:00,63.8,55.4,29.96,NNW,333,7.0,46.2,74,0.00,,,0.11,VWS V14.01,2013-08-09 20:56:00,
2013-08-09 17:00:00,69.1,54.7,29.92,West,276,15.4,37.8,60,0.01,,,0.11,VWS V14.01,2013-08-09 21:00:00,
2013-08-09 17:01:00,63.8,55.0,29.97,NW,319,18.2,46.2,73,0.00,,,0.11,VWS V14.01,2013-08-09 21:01:00,
2013-08-09 17:06:00,63.7,55.3,29.97,NNW,328,16.8,46.2,74,0.00,,,0.11,VWS V14.01,2013-08-09 21:06:00,
2013-08-09 17:11:00,63.4,55.0,29.97,WNW,291,18.2,46.2,74,0.00,,,0.11,VWS V14.01,2013-08-09 21:11:00,
2013-08-09 17:16:00,62.7,54.7,29.98,NW,307,9.8,46.2,75,0.00,,,0.11,VWS V14.01,2013-08-09 21:16:00,
2013-08-09 17:21:00,62.2,54.2,29.98,NNW,336,18.2,46.2,75,0.00,,,0.11,VWS V14.01,2013-08-09 21:21:00,
2013-08-09 17:26:00,61.8,53.8,29.98,NNW,330,12.6,46.2,75,0.00,,,0.11,VWS V14.01,2013-08-09 21:26:00,
2013-08-09 17:31:00,61.9,53.9,29.98,NNW,335,12.6,46.2,75,0.00,,,0.11,VWS V14.01,2013-08-09 21:31:00,
2013-08-09 17:36:00,62.2,54.2,29.98,North,352,15.4,46.2,75,0.00,,,0.11,VWS V14.01,2013-08-09 21:36:00,
2013-08-09 17:41:00,62.2,54.2,29.98,NNW,331,16.8,46.2,75,0.00,,,0.11,VWS V14.01,2013-08-09 21:41:00,
2013-08-09 17:46:00,62.3,53.2,29.98,North,360,36.4,46.2,72,0.00,,,0.11,VWS V14.01,2013-08-09 21:46:00,
2013-08-09 17:51:00,61.9,52.8,29.98,NE,37,19.6,46.2,72,0.00,,,0.11,VWS V14.01,2013-08-09 21:51:00,
2013-08-09 17:56:00,61.9,52.8,29.99,North,6,19.6,46.2,72,0.00,,,0.11,VWS V14.01,2013-08-09 21:56:00,
2013-08-09 18:00:00,61.9,53.2,29.99,WNW,298,4.2,46.2,73,0.00,,,0.11,VWS V14.01,2013-08-09 22:00:00,
2013-08-09 18:01:00,61.8,53.1,29.99,NNW,336,11.2,46.2,73,0.00,,,0.11,VWS V14.01,2013-08-09 22:01:00,
2013-08-09 18:06:00,61.8,51.9,29.99,WSW,255,18.2,40.6,70,0.00,,,0.11,VWS V14.01,2013-08-09 22:06:00,
2013-08-09 18:11:00,61.3,51.5,29.99,NW,311,7.0,40.6,70,0.00,,,0.11,VWS V14.01,2013-08-09 22:11:00,
2013-08-09 18:16:00,61.3,51.8,29.99,NNE,15,15.4,40.6,71,0.00,,,0.11,VWS V14.01,2013-08-09 22:16:00,
2013-08-09 18:21:00,61.3,51.5,30.00,WNW,284,4.2,40.6,70,0.00,,,0.11,VWS V14.01,2013-08-09 22:21:00,
2013-08-09 18:26:00,61.1,51.2,30.00,NW,326,26.6,40.6,70,0.00,,,0.11,VWS V14.01,2013-08-09 22:26:00,
2013-08-09 18:31:00,61.4,51.9,30.00,North,357,15.4,40.6,71,0.00,,,0.11,VWS V14.01,2013-08-09 22:31:00,
2013-08-09 18:36:00,61.4,50.8,30.00,North,358,18.2,40.6,68,0.00,,,0.11,VWS V14.01,2013-08-09 22:36:00,
2013-08-09 18:41:00,61.5,50.8,30.00,NNW,344,16.8,40.6,68,0.00,,,0.11,VWS V14.01,2013-08-09 22:41:00,
2013-08-09 18:46:00,61.1,50.1,30.01,NW,322,26.6,40.6,67,0.00,,,0.11,VWS V14.01,2013-08-09 22:46:00,
2013-08-09 18:51:00,61.1,50.5,30.01,West,273,8.4,40.6,68,0.00,,,0.11,VWS V14.01,2013-08-09 22:51:00,
2013-08-09 18:56:00,61.1,50.1,30.01,North,5,5.6,40.6,67,0.00,,,0.11,VWS V14.01,2013-08-09 22:56:00,
2013-08-09 19:00:00,61.9,53.2,29.99,WNW,298,4.2,46.2,73,0.00,,,0.11,VWS V14.01,2013-08-09 23:00:00,
2013-08-09 19:01:00,61.1,50.1,30.01,NW,319,7.0,40.6,67,0.00,,,0.11,VWS V14.01,2013-08-09 23:01:00,
2013-08-09 19:06:00,60.8,49.0,30.01,NNW,346,25.2,40.6,65,0.00,,,0.11,VWS V14.01,2013-08-09 23:06:00,
2013-08-09 19:11:00,60.7,49.7,30.01,SW,235,15.4,40.6,67,0.00,,,0.11,VWS V14.01,2013-08-09 23:11:00,
2013-08-09 19:16:00,60.5,49.1,30.01,NNW,347,11.2,40.6,66,0.00,,,0.11,VWS V14.01,2013-08-09 23:16:00,
2013-08-09 19:21:00,60.3,49.3,30.01,NNW,340,19.6,40.6,67,0.00,,,0.11,VWS V14.01,2013-08-09 23:21:00,
2013-08-09 19:26:00,60.3,49.3,30.01,NE,49,7.0,40.6,67,0.00,,,0.11,VWS V14.01,2013-08-09 23:26:00,
2013-08-09 19:31:00,60.1,49.1,30.01,NNW,345,7.0,40.6,67,0.00,,,0.11,VWS V14.01,2013-08-09 23:31:00,
2013-08-09 19:36:00,59.8,48.8,30.01,NNW,342,26.6,40.6,67,0.00,,,0.11,VWS V14.01,2013-08-09 23:36:00,
2013-08-09 19:41:00,59.7,49.1,30.01,SW,228,7.0,40.6,68,0.00,,,0.11,VWS V14.01,2013-08-09 23:41:00,
2013-08-09 19:46:00,59.6,48.6,30.01,NNW,338,9.8,40.6,67,0.00,,,0.11,VWS V14.01,2013-08-09 23:46:00,
2013-08-09 19:51:00,59.5,48.5,30.02,NW,314,8.4,40.6,67,0.00,,,0.11,VWS V14.01,2013-08-09 23:51:00,
2013-08-09 19:56:00,59.4,48.5,30.01,NW,305,21.0,40.6,67,0.00,,,0.11,VWS V14.01,2013-08-09 23:56:00,
2013-08-09 20:00:00,59.3,48.0,30.01,ESE,122,2.8,40.6,66,0.00,,,0.11,VWS V14.01,2013-08-10 00:00:00,
2013-08-09 20:01:00,59.3,48.4,30.01,North,9,11.2,40.6,67,0.00,,,0.11,VWS V14.01,2013-08-10 00:01:00,
2013-08-09 20:06:00,59.3,48.0,30.02,NNE,20,7.0,32.2,66,0.00,,,0.11,VWS V14.01,2013-08-10 00:06:00,
2013-08-09 20:11:00,59.3,47.5,30.02,West,271,19.6,32.2,65,0.00,,,0.11,VWS V14.01,2013-08-10 00:11:00,
2013-08-09 20:16:00,59.2,47.9,30.02,West,278,5.6,32.2,66,0.00,,,0.11,VWS V14.01,2013-08-10 00:16:00,
2013-08-09 20:21:00,59.0,48.1,30.02,NNW,327,14.0,32.2,67,0.00,,,0.11,VWS V14.01,2013-08-10 00:21:00,
2013-08-09 20:26:00,58.8,47.9,30.02,North,6,12.6,32.2,67,0.00,,,0.11,VWS V14.01,2013-08-10 00:26:00,
2013-08-09 20:31:00,58.7,47.8,30.02,WSW,245,9.8,32.2,67,0.00,,,0.11,VWS V14.01,2013-08-10 00:31:00,
2013-08-09 20:36:00,58.5,47.6,30.02,NW,313,11.2,32.2,67,0.00,,,0.11,VWS V14.01,2013-08-10 00:36:00,
2013-08-09 20:41:00,58.0,47.9,30.02,NW,322,21.0,32.2,69,0.00,,,0.11,VWS V14.01,2013-08-10 00:41:00,
2013-08-09 20:46:00,57.5,47.8,30.02,WNW,288,2.8,32.2,70,0.00,,,0.11,VWS V14.01,2013-08-10 00:46:00,
2013-08-09 20:51:00,57.3,47.6,30.03,WNW,300,8.4,32.2,70,0.00,,,0.11,VWS V14.01,2013-08-10 00:51:00,
2013-08-09 20:56:00,57.1,47.4,30.03,WNW,291,14.0,32.2,70,0.00,,,0.11,VWS V14.01,2013-08-10 00:56:00,
2013-08-09 21:00:00,59.3,48.0,30.01,ESE,122,2.8,40.6,66,0.00,,,0.11,VWS V14.01,2013-08-10 01:00:00,
2013-08-09 21:01:00,57.0,47.7,30.03,NW,320,7.0,32.2,71,0.00,,,0.11,VWS V14.01,2013-08-10 01:01:00,
2013-08-09 21:06:00,56.9,47.6,30.03,NE,39,2.8,32.2,71,0.00,,,0.11,VWS V14.01,2013-08-10 01:06:00,
2013-08-09 21:11:00,56.8,47.9,30.03,NW,310,4.2,32.2,72,0.00,,,0.11,VWS V14.01,2013-08-10 01:11:00,
2013-08-09 21:16:00,56.7,47.8,30.03,WNW,297,7.0,32.2,72,0.00,,,0.11,VWS V14.01,2013-08-10 01:16:00,
2013-08-09 21:21:00,56.5,47.6,30.04,NW,322,4.2,32.2,72,0.00,,,0.11,VWS V14.01,2013-08-10 01:21:00,
2013-08-09 21:26:00,56.4,47.5,30.04,WSW,258,2.8,32.2,72,0.00,,,0.11,VWS V14.01,2013-08-10 01:26:00,
2013-08-09 21:31:00,56.4,47.5,30.04,WNW,284,4.2,32.2,72,0.00,,,0.11,VWS V14.01,2013-08-10 01:31:00,
2013-08-09 21:36:00,56.4,47.5,30.04,WNW,288,4.2,32.2,72,0.00,,,0.11,VWS V14.01,2013-08-10 01:36:00,
2013-08-09 21:41:00,56.3,47.8,30.04,East,97,2.8,32.2,73,0.00,,,0.11,VWS V14.01,2013-08-10 01:41:00,
2013-08-09 21:46:00,56.2,47.7,30.05,West,271,2.8,32.2,73,0.00,,,0.11,VWS V14.01,2013-08-10 01:46:00,
2013-08-09 21:51:00,56.2,47.7,30.05,West,274,1.4,32.2,73,0.00,,,0.11,VWS V14.01,2013-08-10 01:51:00,
2013-08-09 21:56:00,56.0,47.5,30.05,West,269,11.2,32.2,73,0.00,,,0.11,VWS V14.01,2013-08-10 01:56:00,
2013-08-09 22:00:00,56.1,47.6,30.06,West,273,2.8,32.2,73,0.00,,,0.11,VWS V14.01,2013-08-10 02:00:00,
2013-08-09 22:01:00,56.1,47.6,30.06,NW,325,2.8,32.2,73,0.00,,,0.11,VWS V14.01,2013-08-10 02:01:00,
2013-08-09 22:06:00,55.9,47.7,30.06,NW,305,5.6,8.4,74,0.00,,,0.11,VWS V14.01,2013-08-10 02:06:00,
2013-08-09 22:11:00,55.9,47.7,30.06,WNW,293,4.2,11.2,74,0.00,,,0.11,VWS V14.01,2013-08-10 02:11:00,
2013-08-09 22:16:00,55.8,48.0,30.06,WNW,302,4.2,11.2,75,0.00,,,0.11,VWS V14.01,2013-08-10 02:16:00,
2013-08-09 22:21:00,55.7,47.9,30.06,WNW,302,7.0,11.2,75,0.00,,,0.11,VWS V14.01,2013-08-10 02:21:00,
2013-08-09 22:26:00,55.7,47.9,30.06,WNW,293,5.6,12.6,75,0.00,,,0.11,VWS V14.01,2013-08-10 02:26:00,
2013-08-09 22:31:00,55.7,48.3,30.06,NNW,334,8.4,12.6,76,0.00,,,0.11,VWS V14.01,2013-08-10 02:31:00,
2013-08-09 22:36:00,55.7,48.3,30.05,NW,310,9.8,12.6,76,0.00,,,0.11,VWS V14.01,2013-08-10 02:36:00,
2013-08-09 22:41:00,55.7,48.3,30.05,WNW,295,9.8,12.6,76,0.00,,,0.11,VWS V14.01,2013-08-10 02:41:00,
2013-08-09 22:46:00,55.7,48.3,30.05,NW,314,8.4,14.0,76,0.00,,,0.11,VWS V14.01,2013-08-10 02:46:00,
2013-08-09 22:51:00,55.7,48.3,30.05,NW,305,4.2,15.4,76,0.00,,,0.11,VWS V14.01,2013-08-10 02:51:00,
2013-08-09 22:56:00,55.7,48.3,30.05,NW,305,9.8,15.4,76,0.00,,,0.11,VWS V14.01,2013-08-10 02:56:00,
2013-08-09 23:00:00,56.1,47.6,30.06,West,273,2.8,32.2,73,0.00,,,0.11,VWS V14.01,2013-08-10 03:00:00,
2013-08-09 23:01:00,55.8,48.4,30.05,WSW,257,9.8,15.4,76,0.00,,,0.11,VWS V14.01,2013-08-10 03:01:00,
2013-08-09 23:06:00,55.7,47.9,30.05,NW,311,4.2,15.4,75,0.00,,,0.11,VWS V14.01,2013-08-10 03:06:00,
2013-08-09 23:11:00,55.5,48.1,30.05,NW,315,2.8,15.4,76,0.00,,,0.11,VWS V14.01,2013-08-10 03:11:00,
2013-08-09 23:16:00,55.5,48.1,30.06,NNW,334,2.8,15.4,76,0.00,,,0.11,VWS V14.01,2013-08-10 03:16:00,
2013-08-09 23:21:00,55.4,47.6,30.06,East,86,0.0,15.4,75,0.00,,,0.11,VWS V14.01,2013-08-10 03:21:00,
2013-08-09 23:26:00,55.5,47.7,30.06,NNW,334,7.0,15.4,75,0.00,,,0.11,VWS V14.01,2013-08-10 03:26:00,
2013-08-09 23:30:00,55.5,47.7,30.06,NNW,341,4.2,15.4,75,0.00,,,0.11,VWS V14.01,2013-08-10 03:30:00,
2013-08-09 23:35:00,55.5,47.7,30.06,WNW,293,4.2,15.4,75,0.00,,,0.11,VWS V14.01,2013-08-10 03:35:00,
2013-08-09 23:40:00,55.4,48.0,30.06,WNW,286,4.2,15.4,76,0.00,,,0.11,VWS V14.01,2013-08-10 03:40:00,
2013-08-09 23:45:00,55.3,47.9,30.06,NW,324,2.8,15.4,76,0.00,,,0.11,VWS V14.01,2013-08-10 03:45:00,
2013-08-09 23:50:00,55.3,47.9,30.07,NW,310,4.2,15.4,76,0.00,,,0.11,VWS V14.01,2013-08-10 03:50:00,
2013-08-09 23:55:00,55.4,48.0,30.07,West,273,1.4,15.4,76,0.00,,,0.11,VWS V14.01,2013-08-10 03:55:00,